Aeroporto :
LOGIN :

Iscrizione | Disclaimer

   EN    FR    IT 

 










Sommario :    VFR   VFR Marginale   IFR   IFR Intensivo   IFR Molto Intensivo
Visibilità : 
Base nubi : 
>= 8 km
>= 3000ft
5 / 8 km
1000 / 3000 ft
1500m / 5 km
500 / 1000 ft
800 / 1500m
200 / 500 ft
< 800m
< 200 ft
Simboli :   Temporali  Nebbia  Neve Forte  Precipitazioni Forti  Vento > 20 kt
SIGMETs :   Varie  Temporali  Ghiacco  Turbolenza  Onda orograficha  Ceneri Vulcaniche






- Altitudine del aeroporto : 1202 ft
- Codice IATA : IGS


ETSI - Ingolstadt

ULTIMO METAR :
  • 121320Z VRB03KT 9999 FEW015 BKN080 06/03 Q1007 BLU BLU

METARs OBSOLETI :
  • 121220Z 19005KT 9999 FEW015 BKN080 OVC100 06/03 Q1007 BLU BLU
  • 121120Z 18003KT 9999 FEW012 OVC095 06/03 Q1007 BLU BLU

TAF TAF ETSI
Valido dal 12 a 12 ore il 12 a 21 ore UTC


121122Z 1212/1221 22004KT 9999 NSW FEW010 SCT040 BKN095
BECMG 1217/1219 14003KT 9999 NSW FEW008 BKN040 BKN090
TEMPO 1219/1221 14002KT 3000 -RADZ SCT004 OVC030



MetMap, La meteo Aeronautica in un colpo d'occhio ! - Copyright ORBIFLY Dicembre 2007 - Disclaimer

ORBIFLY MET'MAP TEAM :

Programmazione e sviluppo : Alexandra Zaïnal
Concezione e sviluppo : Baudouin d'Aumeries
Co-Programmazione e sviluppo : Marc-Olivier Méhu
Supporto tecnico e logistico : Manuel Goepfert
Aiuto per la traduzione : Arnaldo La Scala

Contatto : metmap@orbifly.com




FONTI E CREDITI :

   NOAA